createdAt,value
2023-08-11T00:00:55.802Z,98253.38
2023-08-11T00:05:00.439Z,98253.88
2023-08-11T00:09:05.438Z,98253.53
2023-08-11T00:13:13.823Z,98257.34
2023-08-11T00:17:17.850Z,98257.66
2023-08-11T00:21:22.629Z,98264.53
2023-08-11T00:25:26.214Z,98257.84
2023-08-11T00:29:29.389Z,98262.63
2023-08-11T00:33:32.766Z,98266.91
2023-08-11T00:37:37.490Z,98257.41
2023-08-11T00:41:41.098Z,98263.81
2023-08-11T00:45:47.749Z,98255.94
2023-08-11T00:49:52.020Z,98261.19
2023-08-11T00:53:59.723Z,98255.97
2023-08-11T00:58:03.448Z,98256.47
2023-08-11T01:02:08.172Z,98267.09
2023-08-11T01:06:21.629Z,98267.25
2023-08-11T01:10:35.980Z,98268.25
2023-08-11T01:14:45.830Z,98267.59
2023-08-11T01:18:49.761Z,98266.78
2023-08-11T01:22:59.493Z,98264.97
2023-08-11T01:27:04.409Z,98273.00
2023-08-11T01:31:09.992Z,98268.06
2023-08-11T01:35:17.373Z,98272.84
2023-08-11T01:39:26.127Z,98267.94
2023-08-11T01:43:32.510Z,98271.88
2023-08-11T01:47:37.736Z,98269.72
2023-08-11T01:51:41.274Z,98271.22
2023-08-11T01:55:46.075Z,98270.84
2023-08-11T01:59:51.291Z,98265.16
2023-08-11T02:03:54.741Z,98263.00
2023-08-11T02:07:58.126Z,98271.66
2023-08-11T02:12:01.807Z,98272.50
2023-08-11T02:16:06.823Z,98261.69
2023-08-11T02:20:14.879Z,98265.00
2023-08-11T02:24:17.980Z,98275.13
2023-08-11T02:28:21.854Z,98271.53
2023-08-11T02:32:26.908Z,98277.75
2023-08-11T02:36:30.550Z,98275.13
2023-08-11T02:40:33.775Z,98270.22
2023-08-11T02:44:37.313Z,98275.78
2023-08-11T02:48:42.224Z,98277.09
2023-08-11T02:52:45.605Z,98270.53
2023-08-11T02:56:49.302Z,98283.91
2023-08-11T03:00:52.950Z,98284.91
2023-08-11T03:04:57.943Z,98285.91
2023-08-11T03:09:01.110Z,98284.28
2023-08-11T03:13:04.498Z,98290.47
2023-08-11T03:17:08.339Z,98283.09
2023-08-11T03:21:19.756Z,98292.09
2023-08-11T03:25:24.075Z,98291.75
2023-08-11T03:29:27.615Z,98300.25
2023-08-11T03:33:31.194Z,98308.41
2023-08-11T03:37:36.208Z,98314.13
2023-08-11T03:41:39.858Z,98305.09
2023-08-11T03:45:42.974Z,98309.00
2023-08-11T03:49:47.609Z,98307.69
2023-08-11T03:53:52.304Z,98306.03
2023-08-11T03:57:55.737Z,98316.78
2023-08-11T04:01:59.068Z,98336.09
2023-08-11T04:06:03.526Z,98332.00
2023-08-11T04:10:11.984Z,98330.50
2023-08-11T04:14:15.683Z,98328.84
2023-08-11T04:18:18.896Z,98329.00
2023-08-11T04:22:29.189Z,98344.84
2023-08-11T04:26:41.878Z,98336.38
2023-08-11T04:30:45.595Z,98335.69
2023-08-11T04:34:48.922Z,98346.84
2023-08-11T04:38:52.830Z,98348.31
2023-08-11T04:43:10.931Z,98357.47
2023-08-11T04:47:14.378Z,98360.59
2023-08-11T04:51:18.525Z,98359.78
2023-08-11T04:55:21.998Z,98367.88
2023-08-11T04:59:27.028Z,98363.50
2023-08-11T05:03:30.969Z,98361.88
2023-08-11T05:07:35.993Z,98368.63
2023-08-11T05:11:42.267Z,98373.88
2023-08-11T05:15:47.399Z,98384.88
2023-08-11T05:19:51.629Z,98376.88
2023-08-11T05:23:54.744Z,98379.84
2023-08-11T05:27:58.049Z,98384.47
2023-08-11T05:32:03.240Z,98385.47
2023-08-11T05:36:07.490Z,98387.44
2023-08-11T05:40:11.614Z,98390.25
2023-08-11T05:44:15.097Z,98387.94
2023-08-11T05:48:19.764Z,98391.72
2023-08-11T05:52:23.736Z,98386.78
2023-08-11T05:56:27.270Z,98382.78
2023-08-11T06:00:30.780Z,98387.34
2023-08-11T06:04:35.603Z,98391.25
2023-08-11T06:08:42.153Z,98385.63
2023-08-11T06:12:45.669Z,98385.75
2023-08-11T06:16:49.166Z,98387.81
2023-08-11T06:20:54.449Z,98395.16
2023-08-11T06:24:57.792Z,98396.22
2023-08-11T06:29:00.820Z,98398.09
2023-08-11T06:33:04.468Z,98394.19
2023-08-11T06:37:09.940Z,98388.31
2023-08-11T06:41:14.242Z,98402.44
2023-08-11T06:45:17.710Z,98408.94
2023-08-11T06:49:21.412Z,98410.97
2023-08-11T06:53:26.273Z,98415.88
2023-08-11T06:57:29.926Z,98419.53
2023-08-11T07:01:33.576Z,98417.00
2023-08-11T07:05:37.161Z,98415.63
2023-08-11T07:09:42.094Z,98415.69
2023-08-11T07:13:45.753Z,98412.75
2023-08-11T07:17:49.367Z,98419.16
2023-08-11T07:21:53.347Z,98412.56
2023-08-11T07:25:58.035Z,98410.38
2023-08-11T07:30:01.401Z,98409.28
2023-08-11T07:34:05.252Z,98403.94
2023-08-11T07:38:10.673Z,98406.56
2023-08-11T07:42:17.361Z,98400.16
2023-08-11T07:46:21.097Z,98397.28
2023-08-11T07:50:24.333Z,98400.53
2023-08-11T07:54:28.947Z,98397.09
2023-08-11T07:58:33.753Z,98401.94
2023-08-11T08:02:37.068Z,98404.25
2023-08-11T08:06:46.600Z,98400.63
2023-08-11T08:10:50.064Z,98399.38
2023-08-11T08:14:54.752Z,98387.53
2023-08-11T08:18:58.694Z,98393.59
2023-08-11T08:23:02.551Z,98400.31
2023-08-11T08:27:07.171Z,98393.81
2023-08-11T08:31:12.299Z,98392.94
2023-08-11T08:35:15.739Z,98395.78
2023-08-11T08:39:18.981Z,98393.16
2023-08-11T08:43:24.026Z,98394.31
2023-08-11T08:47:29.284Z,98395.19
2023-08-11T08:51:34.027Z,98387.69
2023-08-11T08:55:37.422Z,98388.50
2023-08-11T08:59:43.696Z,98385.13
2023-08-11T09:03:49.418Z,98391.63
2023-08-11T09:07:53.637Z,98376.34
2023-08-11T09:11:58.647Z,98382.59
2023-08-11T09:16:02.801Z,98391.19
2023-08-11T09:20:11.249Z,98381.78
2023-08-11T09:24:16.224Z,98376.44
2023-08-11T09:28:19.249Z,98374.25
2023-08-11T09:32:27.256Z,98366.94
2023-08-11T09:36:33.783Z,98372.00
2023-08-11T09:40:40.037Z,98364.69
2023-08-11T09:44:45.253Z,98362.75
2023-08-11T09:48:52.865Z,98357.81
2023-08-11T09:53:02.075Z,98351.78
2023-08-11T09:57:07.802Z,98350.63
2023-08-11T10:01:20.680Z,98350.00
2023-08-11T10:05:30.828Z,98344.72
2023-08-11T10:09:39.306Z,98340.22
2023-08-11T10:13:45.308Z,98336.69
2023-08-11T10:17:49.797Z,98339.44
2023-08-11T10:21:57.570Z,98331.81
2023-08-11T10:26:03.335Z,98330.69
2023-08-11T10:30:11.298Z,98327.66
2023-08-11T10:34:14.958Z,98326.81
2023-08-11T10:38:26.618Z,98328.16
2023-08-11T10:42:31.497Z,98322.94
2023-08-11T10:46:38.587Z,98315.31
2023-08-11T10:50:43.024Z,98313.56
2023-08-11T10:54:52.645Z,98311.09
2023-08-11T10:59:06.665Z,98300.59
2023-08-11T11:03:13.413Z,98303.38
2023-08-11T11:07:19.613Z,98303.25
2023-08-11T11:11:23.174Z,98299.47
2023-08-11T11:15:32.481Z,98299.47
2023-08-11T11:19:36.380Z,98298.13
2023-08-11T11:23:40.137Z,98295.13
2023-08-11T11:27:44.506Z,98290.75
2023-08-11T11:31:50.596Z,98292.75
2023-08-11T11:35:55.052Z,98293.41
2023-08-11T11:39:59.792Z,98291.84
2023-08-11T11:44:04.871Z,98292.09
2023-08-11T11:48:09.784Z,98288.66
2023-08-11T11:52:16.110Z,98291.38
2023-08-11T11:56:20.875Z,98278.84
2023-08-11T12:00:27.014Z,98281.47
2023-08-11T12:04:32.216Z,98285.28
2023-08-11T12:08:36.569Z,98278.34
2023-08-11T12:12:44.544Z,98267.19
2023-08-11T12:16:48.173Z,98270.53
2023-08-11T12:20:53.503Z,98266.91
2023-08-11T12:24:57.113Z,98268.00
2023-08-11T12:29:00.253Z,98258.72
2023-08-11T12:33:04.033Z,98255.84
2023-08-11T12:37:12.274Z,98258.97
2023-08-11T12:41:19.015Z,98256.28
2023-08-11T12:45:22.617Z,98254.69
2023-08-11T12:49:25.834Z,98244.97
2023-08-11T12:53:31.179Z,98253.00
2023-08-11T12:57:35.003Z,98254.22
2023-08-11T13:01:40.399Z,98243.53
2023-08-11T13:05:43.743Z,98242.97
2023-08-11T13:09:51.238Z,98248.09
2023-08-11T13:13:54.639Z,98250.78
2023-08-11T13:17:58.352Z,98248.78
2023-08-11T13:22:08.277Z,98245.41
2023-08-11T13:26:16.124Z,98241.50
2023-08-11T13:30:20.817Z,98235.28
2023-08-11T13:34:24.886Z,98246.50
2023-08-11T13:38:29.198Z,98243.38
2023-08-11T13:42:35.221Z,98246.69
2023-08-11T13:46:38.224Z,98247.78
2023-08-11T13:50:41.902Z,98246.09
2023-08-11T13:54:58.922Z,98245.50
2023-08-11T13:59:04.912Z,98244.09
2023-08-11T14:03:08.513Z,98252.72
2023-08-11T14:07:28.210Z,98253.72
2023-08-11T14:11:33.063Z,98242.69
2023-08-11T14:15:39.586Z,98240.09
2023-08-11T14:19:43.143Z,98240.09
2023-08-11T14:23:47.521Z,98238.69
2023-08-11T14:27:50.884Z,98237.28
2023-08-11T14:31:59.071Z,98236.38
2023-08-11T14:36:13.517Z,98229.09
2023-08-11T14:40:17.973Z,98237.69
2023-08-11T14:44:22.719Z,98230.69
2023-08-11T14:48:28.382Z,98214.97
2023-08-11T14:52:32.584Z,98216.03
2023-08-11T14:56:36.142Z,98225.88
2023-08-11T15:00:40.004Z,98222.97
2023-08-11T15:04:45.369Z,98220.03
2023-08-11T15:08:49.325Z,98226.34
2023-08-11T15:12:54.064Z,98229.94
2023-08-11T15:16:57.714Z,98221.59
2023-08-11T15:21:02.463Z,98226.78
2023-08-11T15:25:07.199Z,98213.34
2023-08-11T15:29:10.486Z,98204.25
2023-08-11T15:33:14.278Z,98203.50
2023-08-11T15:37:19.207Z,98198.50
2023-08-11T15:41:22.892Z,98197.53
2023-08-11T15:45:26.013Z,98198.81
2023-08-11T15:49:29.970Z,98198.13
2023-08-11T15:53:34.602Z,98195.28
2023-08-11T15:57:38.577Z,98196.47
2023-08-11T16:01:47.704Z,98190.63
2023-08-11T16:06:00.117Z,98193.75
2023-08-11T16:10:05.817Z,98189.06
2023-08-11T16:14:09.366Z,98193.84
2023-08-11T16:18:13.702Z,98182.16
2023-08-11T16:22:16.745Z,98178.56
2023-08-11T16:26:21.891Z,98178.66
2023-08-11T16:30:25.683Z,98176.94
2023-08-11T16:34:28.980Z,98177.03
2023-08-11T16:38:32.530Z,98163.13
2023-08-11T16:42:40.054Z,98161.63
2023-08-11T16:46:43.174Z,98168.75
2023-08-11T16:50:46.954Z,98168.88
2023-08-11T16:54:50.385Z,98170.38
2023-08-11T16:58:55.064Z,98163.50
2023-08-11T17:02:58.591Z,98163.69
2023-08-11T17:07:02.162Z,98157.91
2023-08-11T17:11:05.574Z,98154.50
2023-08-11T17:15:12.002Z,98159.41
2023-08-11T17:19:15.152Z,98157.03
2023-08-11T21:14:53.862Z,98180.00
2023-08-11T21:18:57.095Z,98180.41
2023-08-11T21:23:01.275Z,98176.13
2023-08-11T21:27:04.505Z,98177.97
2023-08-11T21:31:18.305Z,98176.13
2023-08-11T21:35:24.041Z,98184.06
2023-08-11T21:39:28.668Z,98182.03
2023-08-11T21:43:31.932Z,98184.44
2023-08-11T21:47:37.293Z,98187.06
2023-08-11T21:51:40.879Z,98193.34
2023-08-11T21:55:45.001Z,98194.75
2023-08-11T21:59:48.342Z,98187.22
2023-08-11T22:03:52.975Z,98178.63
2023-08-11T22:07:56.340Z,98178.19
2023-08-11T22:12:01.582Z,98184.63
2023-08-11T22:16:05.160Z,98179.72
2023-08-11T22:20:13.041Z,98186.19
2023-08-11T22:24:23.992Z,98179.66
2023-08-11T22:28:34.459Z,98183.25
2023-08-11T22:32:37.979Z,98188.47
2023-08-11T22:36:43.150Z,98184.59
2023-08-11T22:40:46.948Z,98194.13
2023-08-11T22:44:51.694Z,98186.19
2023-08-11T22:48:55.331Z,98193.16
2023-08-11T22:53:00.295Z,98197.56
2023-08-11T22:57:03.475Z,98185.56
2023-08-11T23:01:06.798Z,98179.81
2023-08-11T23:05:10.729Z,98184.41
2023-08-11T23:09:15.454Z,98188.59
2023-08-11T23:13:19.396Z,98193.66
2023-08-11T23:17:23.618Z,98186.50
2023-08-11T23:21:27.464Z,98185.81
2023-08-11T23:25:34.362Z,98187.38
2023-08-11T23:29:37.980Z,98194.41
2023-08-11T23:33:41.086Z,98191.50
2023-08-11T23:37:44.983Z,98178.72
2023-08-11T23:41:50.223Z,98182.69
2023-08-11T23:45:53.978Z,98191.16
2023-08-11T23:49:58.061Z,98190.72
2023-08-11T23:54:01.847Z,98198.00
2023-08-11T23:58:06.547Z,98194.75
